createdAt,value
2022-10-05T00:00:45.022Z,1013.88
2022-10-05T00:01:45.077Z,1013.88
2022-10-05T00:02:44.997Z,1013.89
2022-10-05T00:03:44.985Z,1013.89
2022-10-05T00:04:45.042Z,1013.88
2022-10-05T00:05:44.969Z,1013.86
2022-10-05T00:06:45.303Z,1013.82
2022-10-05T00:07:44.939Z,1013.78
2022-10-05T00:08:44.939Z,1013.75
2022-10-05T00:09:44.968Z,1013.75
2022-10-05T00:10:44.909Z,1013.72
2022-10-05T00:11:44.896Z,1013.73
2022-10-05T00:12:44.888Z,1013.69
2022-10-05T00:13:44.873Z,1013.71
2022-10-05T00:14:44.864Z,1013.70
2022-10-05T00:15:44.859Z,1013.67
2022-10-05T00:16:45.260Z,1013.61
2022-10-05T00:17:44.824Z,1013.59
2022-10-05T00:18:44.819Z,1013.60
2022-10-05T00:19:44.808Z,1013.55
2022-10-05T00:20:44.824Z,1013.54
2022-10-05T00:21:44.781Z,1013.51
2022-10-05T00:22:44.778Z,1013.53
2022-10-05T00:23:44.767Z,1013.49
2022-10-05T00:24:44.751Z,1013.49
2022-10-05T00:25:44.760Z,1013.51
2022-10-05T00:26:45.101Z,1013.45
2022-10-05T00:27:44.719Z,1013.45
2022-10-05T00:28:44.707Z,1013.47
2022-10-05T00:29:44.697Z,1013.47
2022-10-05T00:30:44.703Z,1013.45
2022-10-05T00:31:44.839Z,1013.42
2022-10-05T00:32:44.674Z,1013.43
2022-10-05T00:33:44.660Z,1013.40
2022-10-05T00:34:44.633Z,1013.44
2022-10-05T00:35:44.652Z,1013.39
2022-10-05T00:36:44.978Z,1013.43
2022-10-05T00:37:44.607Z,1013.40
2022-10-05T00:38:44.588Z,1013.39
2022-10-05T00:39:44.587Z,1013.42
2022-10-05T00:40:44.587Z,1013.44
2022-10-05T00:41:44.563Z,1013.40
2022-10-05T00:42:44.541Z,1013.39
2022-10-05T00:43:44.531Z,1013.40
2022-10-05T00:44:44.526Z,1013.35
2022-10-05T00:45:44.585Z,1013.36
2022-10-05T00:46:44.750Z,1013.36
2022-10-05T00:47:44.494Z,1013.37
2022-10-05T00:48:44.481Z,1013.36
2022-10-05T00:49:44.466Z,1013.39
2022-10-05T00:50:44.464Z,1013.36
2022-10-05T00:51:44.454Z,1013.39
2022-10-05T00:52:44.458Z,1013.37
2022-10-05T00:53:44.418Z,1013.38
2022-10-05T00:54:44.414Z,1013.35
2022-10-05T00:55:44.416Z,1013.36
2022-10-05T00:56:44.736Z,1013.37
2022-10-05T00:57:44.383Z,1013.33
2022-10-05T00:58:44.362Z,1013.37
2022-10-05T00:59:44.360Z,1013.35
2022-10-05T01:00:44.356Z,1013.32
2022-10-05T01:01:44.330Z,1013.35
2022-10-05T01:02:44.359Z,1013.37
2022-10-05T01:03:44.307Z,1013.33
2022-10-05T01:04:44.317Z,1013.39
2022-10-05T01:05:44.299Z,1013.41
2022-10-05T01:06:44.626Z,1013.45
2022-10-05T01:07:44.271Z,1013.40
2022-10-05T01:08:44.272Z,1013.40
2022-10-05T01:09:44.261Z,1013.35
2022-10-05T01:10:44.239Z,1013.40
2022-10-05T01:11:44.217Z,1013.41
2022-10-05T01:12:44.211Z,1013.40
2022-10-05T01:13:44.195Z,1013.42
2022-10-05T01:14:44.182Z,1013.41
2022-10-05T01:15:44.188Z,1013.41
2022-10-05T01:16:44.549Z,1013.43
2022-10-05T01:17:44.157Z,1013.41
2022-10-05T01:18:44.137Z,1013.38
2022-10-05T01:19:44.133Z,1013.35
2022-10-05T01:20:44.141Z,1013.34
2022-10-05T01:21:44.126Z,1013.32
2022-10-05T01:22:44.092Z,1013.30
2022-10-05T01:23:44.095Z,1013.31
2022-10-05T01:24:44.098Z,1013.36
2022-10-05T01:25:44.222Z,1013.35
2022-10-05T01:26:44.545Z,1013.34
2022-10-05T01:27:44.053Z,1013.38
2022-10-05T01:28:44.033Z,1013.40
2022-10-05T01:29:44.022Z,1013.38
2022-10-05T01:30:44.020Z,1013.39
2022-10-05T01:31:44.086Z,1013.40
2022-10-05T01:32:43.978Z,1013.41
2022-10-05T01:33:43.967Z,1013.42
2022-10-05T01:34:43.957Z,1013.38
2022-10-05T01:35:43.947Z,1013.35
2022-10-05T01:36:44.400Z,1013.34
2022-10-05T01:37:43.932Z,1013.33
2022-10-05T01:38:43.919Z,1013.33
2022-10-05T01:39:43.909Z,1013.30
2022-10-05T01:40:43.974Z,1013.31
2022-10-05T01:41:43.899Z,1013.30
2022-10-05T01:42:43.874Z,1013.28
2022-10-05T01:43:43.856Z,1013.27
2022-10-05T01:44:43.850Z,1013.32
2022-10-05T01:45:43.885Z,1013.29
2022-10-05T01:46:44.188Z,1013.29
2022-10-05T01:47:43.826Z,1013.26
2022-10-05T01:48:43.799Z,1013.25
2022-10-05T01:49:43.796Z,1013.27
2022-10-05T01:50:43.783Z,1013.28
2022-10-05T01:51:43.791Z,1013.27
2022-10-05T01:52:43.755Z,1013.28
2022-10-05T01:53:43.756Z,1013.24
2022-10-05T01:54:43.739Z,1013.23
2022-10-05T01:55:43.721Z,1013.24
2022-10-05T01:56:44.064Z,1013.21
2022-10-05T01:57:43.730Z,1013.19
2022-10-05T01:58:43.689Z,1013.12
2022-10-05T01:59:43.676Z,1013.16
2022-10-05T02:00:43.742Z,1013.12
2022-10-05T02:01:43.674Z,1013.09
2022-10-05T02:02:43.724Z,1013.09
2022-10-05T02:03:43.640Z,1013.13
2022-10-05T02:05:01.613Z,1013.12
2022-10-05T02:05:44.608Z,1013.11
2022-10-05T02:06:43.775Z,1013.06
2022-10-05T02:07:43.586Z,1013.07
2022-10-05T02:08:43.582Z,1013.06
2022-10-05T02:09:43.571Z,1013.08
2022-10-05T02:10:43.557Z,1013.07
2022-10-05T02:11:43.564Z,1013.02
2022-10-05T02:12:43.556Z,1012.98
2022-10-05T02:13:43.527Z,1012.99
2022-10-05T02:14:43.514Z,1013.02
2022-10-05T02:15:43.578Z,1013.00
2022-10-05T02:16:43.927Z,1012.96
2022-10-05T02:17:43.472Z,1012.95
2022-10-05T02:18:43.468Z,1012.95
2022-10-05T02:19:43.460Z,1012.89
2022-10-05T02:20:43.438Z,1012.92
2022-10-05T02:21:43.428Z,1012.89
2022-10-05T02:22:43.436Z,1012.91
2022-10-05T02:23:43.413Z,1012.88
2022-10-05T02:24:43.401Z,1012.82
2022-10-05T02:25:43.383Z,1012.83
2022-10-05T02:26:43.612Z,1012.82
2022-10-05T02:27:43.377Z,1012.80
2022-10-05T02:28:43.371Z,1012.80
2022-10-05T02:29:43.341Z,1012.81
2022-10-05T02:30:43.347Z,1012.79
2022-10-05T02:31:43.402Z,1012.84
2022-10-05T02:32:43.315Z,1012.82
2022-10-05T02:33:43.294Z,1012.82
2022-10-05T02:34:43.281Z,1012.81
2022-10-05T02:35:43.278Z,1012.84
2022-10-05T02:36:43.470Z,1012.83
2022-10-05T02:37:43.267Z,1012.82
2022-10-05T02:38:43.253Z,1012.86
2022-10-05T02:39:43.227Z,1012.86
2022-10-05T02:40:43.214Z,1012.81
2022-10-05T02:41:43.211Z,1012.89
2022-10-05T02:42:43.232Z,1012.89
2022-10-05T02:43:43.182Z,1012.90
2022-10-05T02:44:43.191Z,1012.92
2022-10-05T02:45:43.216Z,1012.94
2022-10-05T02:46:43.401Z,1012.96
2022-10-05T02:47:43.148Z,1012.95
2022-10-05T02:48:43.140Z,1012.97
2022-10-05T02:49:43.121Z,1012.99
2022-10-05T02:50:43.109Z,1013.01
2022-10-05T02:51:43.098Z,1012.99
2022-10-05T02:52:43.083Z,1012.97
2022-10-05T02:53:43.093Z,1012.98
2022-10-05T02:54:43.092Z,1012.99
2022-10-05T02:55:43.080Z,1012.97
2022-10-05T02:56:43.348Z,1012.98
2022-10-05T02:57:43.029Z,1012.98
2022-10-05T02:58:43.051Z,1012.95
2022-10-05T02:59:43.004Z,1012.91
2022-10-05T03:00:43.049Z,1012.92
2022-10-05T03:01:43.038Z,1012.90
2022-10-05T03:02:42.967Z,1012.83
2022-10-05T03:03:42.979Z,1012.84
2022-10-05T03:04:42.946Z,1012.85
2022-10-05T03:05:42.934Z,1012.82
2022-10-05T03:06:43.289Z,1012.81
2022-10-05T03:07:42.929Z,1012.80
2022-10-05T03:08:42.920Z,1012.78
2022-10-05T03:09:42.896Z,1012.83
2022-10-05T03:10:42.881Z,1012.82
2022-10-05T03:11:42.869Z,1012.83
2022-10-05T03:12:42.863Z,1012.79
2022-10-05T03:13:42.875Z,1012.77
2022-10-05T03:14:42.834Z,1012.74
2022-10-05T03:15:42.888Z,1012.74
2022-10-05T03:16:43.017Z,1012.74
2022-10-05T03:17:42.798Z,1012.71
2022-10-05T03:18:42.792Z,1012.68
2022-10-05T03:19:42.808Z,1012.72
2022-10-05T03:20:42.765Z,1012.69
2022-10-05T03:21:42.752Z,1012.71
2022-10-05T03:22:42.746Z,1012.70
2022-10-05T03:23:42.731Z,1012.74
2022-10-05T03:24:42.733Z,1012.74
2022-10-05T03:25:42.720Z,1012.75
2022-10-05T03:26:42.891Z,1012.73
2022-10-05T03:27:42.700Z,1012.74
2022-10-05T03:28:42.676Z,1012.73
2022-10-05T03:29:42.685Z,1012.74
2022-10-05T03:30:42.652Z,1012.76
2022-10-05T03:31:42.640Z,1012.78
2022-10-05T03:32:42.660Z,1012.75
2022-10-05T03:33:42.640Z,1012.79
2022-10-05T03:34:42.680Z,1012.76
2022-10-05T03:35:42.646Z,1012.75
2022-10-05T03:36:42.759Z,1012.74
2022-10-05T03:37:42.625Z,1012.72
2022-10-05T03:38:42.598Z,1012.74
2022-10-05T03:39:42.589Z,1012.70
2022-10-05T03:40:42.568Z,1012.76
2022-10-05T03:41:42.577Z,1012.72
2022-10-05T03:42:42.542Z,1012.67
2022-10-05T03:43:42.508Z,1012.67
2022-10-05T03:44:42.514Z,1012.65
2022-10-05T03:45:42.502Z,1012.64
2022-10-05T03:46:42.473Z,1012.65
2022-10-05T03:47:42.466Z,1012.67
2022-10-05T03:48:42.478Z,1012.68
2022-10-05T03:49:42.439Z,1012.66
2022-10-05T03:50:42.449Z,1012.66
2022-10-05T03:51:42.423Z,1012.69
2022-10-05T03:52:42.417Z,1012.71
2022-10-05T03:53:42.396Z,1012.64
2022-10-05T03:54:42.391Z,1012.64
2022-10-05T03:55:42.391Z,1012.64
2022-10-05T03:56:42.363Z,1012.65
2022-10-05T03:57:42.349Z,1012.63
2022-10-05T03:58:42.346Z,1012.66
2022-10-05T03:59:42.338Z,1012.64
2022-10-05T04:00:42.329Z,1012.64
2022-10-05T04:01:42.408Z,1012.64
2022-10-05T04:02:42.381Z,1012.62
2022-10-05T04:03:42.290Z,1012.59
2022-10-05T04:04:42.348Z,1012.57
2022-10-05T04:05:42.260Z,1012.55
2022-10-05T04:06:42.262Z,1012.56
2022-10-05T04:07:42.237Z,1012.51
2022-10-05T04:08:47.434Z,1012.52
2022-10-05T04:09:43.235Z,1012.52
2022-10-05T04:10:42.215Z,1012.48
2022-10-05T04:11:42.206Z,1012.48
2022-10-05T04:12:42.179Z,1012.46
2022-10-05T04:13:42.182Z,1012.46
2022-10-05T04:14:42.162Z,1012.48
2022-10-05T04:15:42.169Z,1012.45
2022-10-05T04:16:42.156Z,1012.44
2022-10-05T04:17:42.243Z,1012.45
2022-10-05T04:18:42.122Z,1012.45
2022-10-05T04:19:42.107Z,1012.42
2022-10-05T04:20:42.154Z,1012.40
2022-10-05T04:21:42.096Z,1012.41
2022-10-05T04:22:42.078Z,1012.39
2022-10-05T04:23:42.066Z,1012.36
2022-10-05T04:24:42.048Z,1012.36
2022-10-05T04:25:42.035Z,1012.34
2022-10-05T04:26:42.047Z,1012.39
2022-10-05T04:27:42.014Z,1012.37
2022-10-05T04:28:42.100Z,1012.37
2022-10-05T04:29:41.993Z,1012.38
2022-10-05T04:30:41.983Z,1012.38
2022-10-05T04:31:42.047Z,1012.40
2022-10-05T04:32:41.963Z,1012.37
2022-10-05T04:33:41.946Z,1012.37
2022-10-05T04:34:41.934Z,1012.41
2022-10-05T04:35:41.930Z,1012.35
2022-10-05T04:36:41.935Z,1012.35
2022-10-05T04:37:45.668Z,1012.33
2022-10-05T04:38:41.898Z,1012.31
2022-10-05T04:39:41.877Z,1012.40
2022-10-05T04:40:41.921Z,1012.36
2022-10-05T04:41:41.860Z,1012.35
2022-10-05T04:42:41.864Z,1012.38
2022-10-05T04:43:41.839Z,1012.35
2022-10-05T04:44:41.821Z,1012.42
2022-10-05T04:45:41.817Z,1012.38
2022-10-05T04:46:41.891Z,1012.36
2022-10-05T04:47:41.804Z,1012.33
2022-10-05T04:48:41.785Z,1012.36
2022-10-05T04:49:41.765Z,1012.35
2022-10-05T04:50:41.760Z,1012.36
2022-10-05T04:51:41.750Z,1012.35
2022-10-05T04:52:41.821Z,1012.37
2022-10-05T04:53:41.741Z,1012.37
2022-10-05T04:54:41.711Z,1012.38
2022-10-05T04:55:41.705Z,1012.39
2022-10-05T04:56:41.687Z,1012.41
2022-10-05T04:57:41.682Z,1012.45
2022-10-05T04:58:42.677Z,1012.48
2022-10-05T04:59:41.663Z,1012.44
2022-10-05T05:00:41.717Z,1012.41
2022-10-05T05:01:41.637Z,1012.42
2022-10-05T05:02:41.627Z,1012.48
2022-10-05T05:03:41.732Z,1012.43
2022-10-05T05:04:41.638Z,1012.44
2022-10-05T05:06:05.013Z,1012.45
2022-10-05T05:06:42.575Z,1012.44
2022-10-05T05:07:41.581Z,1012.43
2022-10-05T05:08:41.650Z,1012.43
2022-10-05T05:09:41.560Z,1012.40
2022-10-05T05:10:41.624Z,1012.40
2022-10-05T05:11:41.528Z,1012.41
2022-10-05T05:12:41.508Z,1012.38
2022-10-05T05:13:41.499Z,1012.37
2022-10-05T05:14:41.500Z,1012.39
2022-10-05T05:15:41.548Z,1012.35
2022-10-05T05:16:41.473Z,1012.35
2022-10-05T05:17:41.459Z,1012.37
2022-10-05T05:18:41.450Z,1012.38
2022-10-05T05:19:41.449Z,1012.36
2022-10-05T05:20:41.462Z,1012.40
2022-10-05T05:21:41.407Z,1012.35
2022-10-05T05:22:41.403Z,1012.37
2022-10-05T05:23:41.397Z,1012.40
2022-10-05T05:24:41.415Z,1012.36
2022-10-05T05:25:41.360Z,1012.39
2022-10-05T05:26:41.360Z,1012.41
2022-10-05T05:27:41.341Z,1012.39
2022-10-05T05:28:41.427Z,1012.40
2022-10-05T05:29:41.335Z,1012.43
2022-10-05T05:30:41.307Z,1012.43
2022-10-05T05:31:41.343Z,1012.40
2022-10-05T05:32:41.292Z,1012.43
2022-10-05T05:33:41.280Z,1012.44
2022-10-05T05:34:41.279Z,1012.44
2022-10-05T05:35:41.394Z,1012.41
2022-10-05T05:36:41.247Z,1012.44
2022-10-05T05:37:41.229Z,1012.45
2022-10-05T05:38:41.239Z,1012.44
2022-10-05T05:39:41.207Z,1012.44
2022-10-05T05:40:41.236Z,1012.41
2022-10-05T05:41:41.190Z,1012.42
2022-10-05T05:42:41.181Z,1012.44
2022-10-05T05:43:41.209Z,1012.42
2022-10-05T05:44:41.149Z,1012.38
2022-10-05T05:45:41.163Z,1012.46
2022-10-05T05:47:02.853Z,1012.46
2022-10-05T05:47:42.184Z,1012.45
2022-10-05T05:48:41.112Z,1012.37
2022-10-05T05:49:41.098Z,1012.40
2022-10-05T05:50:41.101Z,1012.38
2022-10-05T05:51:41.077Z,1012.41
2022-10-05T05:52:41.066Z,1012.47
2022-10-05T05:53:41.060Z,1012.41
2022-10-05T05:54:41.038Z,1012.39
2022-10-05T05:55:41.052Z,1012.44
2022-10-05T05:56:41.036Z,1012.44
2022-10-05T05:57:41.004Z,1012.41
2022-10-05T05:58:40.993Z,1012.35
2022-10-05T05:59:40.988Z,1012.36
2022-10-05T06:00:40.983Z,1012.38
2022-10-05T06:01:44.495Z,1012.36
2022-10-05T06:02:41.122Z,1012.40
2022-10-05T06:03:40.937Z,1012.41
2022-10-05T06:04:40.924Z,1012.36
2022-10-05T06:05:40.933Z,1012.41
2022-10-05T06:06:40.910Z,1012.47
2022-10-05T06:07:40.900Z,1012.41
2022-10-05T06:08:40.888Z,1012.39
2022-10-05T06:09:40.878Z,1012.41
2022-10-05T06:10:40.874Z,1012.42
2022-10-05T06:11:40.846Z,1012.41
2022-10-05T06:12:40.993Z,1012.49
2022-10-05T06:13:40.833Z,1012.46
2022-10-05T06:14:40.813Z,1012.48
2022-10-05T06:15:40.851Z,1012.47
2022-10-05T06:16:40.871Z,1012.50
2022-10-05T06:17:40.778Z,1012.46
2022-10-05T06:18:40.768Z,1012.50
2022-10-05T06:19:40.762Z,1012.47
2022-10-05T06:20:40.749Z,1012.51
2022-10-05T06:21:40.751Z,1012.53
2022-10-05T06:22:40.724Z,1012.52
2022-10-05T06:23:40.713Z,1012.54
2022-10-05T06:24:40.702Z,1012.53
2022-10-05T06:25:40.698Z,1012.53
2022-10-05T06:26:40.714Z,1012.48
2022-10-05T06:27:40.669Z,1012.53
2022-10-05T06:28:40.801Z,1012.50
2022-10-05T06:29:40.639Z,1012.53
2022-10-05T06:30:40.674Z,1012.47
2022-10-05T06:31:40.671Z,1012.55
2022-10-05T06:32:40.615Z,1012.56
2022-10-05T06:33:40.596Z,1012.56
2022-10-05T06:34:40.630Z,1012.50
2022-10-05T06:35:40.581Z,1012.52
2022-10-05T06:36:40.585Z,1012.48
2022-10-05T06:37:40.561Z,1012.53
2022-10-05T06:38:40.553Z,1012.48
2022-10-05T06:39:40.538Z,1012.51
2022-10-05T06:40:41.414Z,1012.52
2022-10-05T06:41:40.531Z,1012.49
2022-10-05T06:42:40.505Z,1012.51
2022-10-05T06:43:40.491Z,1012.54
2022-10-05T06:44:40.524Z,1012.45
2022-10-05T06:45:40.546Z,1012.52
2022-10-05T06:46:40.483Z,1012.45
2022-10-05T06:47:40.452Z,1012.41
2022-10-05T06:48:40.443Z,1012.47
2022-10-05T06:49:40.426Z,1012.50
2022-10-05T06:50:40.408Z,1012.43
2022-10-05T06:51:40.413Z,1012.44
2022-10-05T06:52:40.388Z,1012.42
2022-10-05T06:53:40.381Z,1012.42
2022-10-05T06:54:40.371Z,1012.44
2022-10-05T06:55:40.357Z,1012.42
2022-10-05T06:56:40.361Z,1012.43
2022-10-05T06:57:40.337Z,1012.46
2022-10-05T06:58:40.325Z,1012.43
2022-10-05T06:59:40.312Z,1012.43
2022-10-05T07:00:40.328Z,1012.45
2022-10-05T07:01:40.496Z,1012.45
2022-10-05T07:02:40.430Z,1012.40
2022-10-05T07:03:40.469Z,1012.44
2022-10-05T07:04:40.263Z,1012.43
2022-10-05T07:05:40.253Z,1012.42
2022-10-05T07:06:40.237Z,1012.42
2022-10-05T07:07:40.237Z,1012.36
2022-10-05T07:08:40.205Z,1012.37
2022-10-05T07:09:40.193Z,1012.38
2022-10-05T07:10:40.191Z,1012.34
2022-10-05T07:11:40.188Z,1012.37
2022-10-05T07:12:40.189Z,1012.35
2022-10-05T07:13:40.160Z,1012.37
2022-10-05T07:14:40.144Z,1012.34
2022-10-05T07:15:40.130Z,1012.25
2022-10-05T07:16:40.225Z,1012.34
2022-10-05T07:17:40.127Z,1012.39
2022-10-05T07:18:40.110Z,1012.42
2022-10-05T07:19:40.082Z,1012.37
2022-10-05T07:20:40.076Z,1012.36
2022-10-05T07:21:40.081Z,1012.43
2022-10-05T07:22:40.076Z,1012.43
2022-10-05T07:23:40.053Z,1012.38
2022-10-05T07:24:40.079Z,1012.35
2022-10-05T07:25:40.016Z,1012.37
2022-10-05T07:26:40.006Z,1012.45
2022-10-05T07:27:40.019Z,1012.45
2022-10-05T07:28:40.091Z,1012.45
2022-10-05T07:29:39.978Z,1012.44
2022-10-05T07:30:39.999Z,1012.45
2022-10-05T07:31:40.030Z,1012.43
2022-10-05T07:32:39.986Z,1012.42
2022-10-05T07:33:39.935Z,1012.42
2022-10-05T07:34:39.914Z,1012.41
2022-10-05T07:35:39.908Z,1012.42
2022-10-05T07:36:39.892Z,1012.38
2022-10-05T07:37:39.892Z,1012.42
2022-10-05T07:38:39.869Z,1012.44
2022-10-05T07:39:59.546Z,1012.43
2022-10-05T07:40:40.853Z,1012.41
2022-10-05T07:41:39.843Z,1012.41
2022-10-05T07:42:47.321Z,1012.40
2022-10-05T07:44:01.149Z,1012.48
2022-10-05T07:44:40.807Z,1012.44
2022-10-05T07:45:39.848Z,1012.44
2022-10-05T07:46:39.783Z,1012.53
2022-10-05T07:47:39.791Z,1012.50
2022-10-05T07:48:39.852Z,1012.46
2022-10-05T07:49:39.752Z,1012.44
2022-10-05T07:50:39.738Z,1012.43
2022-10-05T07:51:39.728Z,1012.45
2022-10-05T07:52:39.721Z,1012.48
2022-10-05T07:53:39.706Z,1012.51
2022-10-05T07:54:39.694Z,1012.48
2022-10-05T07:55:39.677Z,1012.47
2022-10-05T07:56:39.674Z,1012.51
2022-10-05T07:57:39.675Z,1012.51
2022-10-05T07:58:39.654Z,1012.48
2022-10-05T07:59:39.641Z,1012.50
2022-10-05T08:00:39.621Z,1012.53
2022-10-05T08:01:39.720Z,1012.52
2022-10-05T08:02:39.691Z,1012.50
2022-10-05T08:03:39.597Z,1012.52
2022-10-05T08:04:41.868Z,1012.53
2022-10-05T08:05:39.571Z,1012.59
2022-10-05T08:06:39.561Z,1012.52
2022-10-05T08:07:39.567Z,1012.52
2022-10-05T08:08:39.542Z,1012.54
2022-10-05T08:09:39.519Z,1012.52
2022-10-05T08:10:39.506Z,1012.53
2022-10-05T08:11:39.505Z,1012.52
2022-10-05T08:12:39.509Z,1012.52
2022-10-05T08:13:39.483Z,1012.56
2022-10-05T08:14:39.468Z,1012.54
2022-10-05T08:15:39.513Z,1012.55
2022-10-05T08:16:39.442Z,1012.59
2022-10-05T08:17:39.438Z,1012.57
2022-10-05T08:18:39.436Z,1012.58
2022-10-05T08:19:39.410Z,1012.53
2022-10-05T08:20:39.450Z,1012.54
2022-10-05T08:21:39.386Z,1012.54
2022-10-05T08:22:39.374Z,1012.54
2022-10-05T08:23:39.390Z,1012.55
2022-10-05T08:24:39.359Z,1012.58
2022-10-05T08:25:39.343Z,1012.57
2022-10-05T08:26:39.336Z,1012.56
2022-10-05T08:27:39.319Z,1012.57
2022-10-05T08:28:39.435Z,1012.51
2022-10-05T08:29:39.297Z,1012.57
2022-10-05T08:30:39.296Z,1012.57
2022-10-05T08:31:39.356Z,1012.55
2022-10-05T08:32:39.269Z,1012.50
2022-10-05T08:33:39.279Z,1012.53
2022-10-05T08:34:39.239Z,1012.54
2022-10-05T08:35:39.241Z,1012.49
2022-10-05T08:36:39.238Z,1012.51
2022-10-05T08:37:39.213Z,1012.47
2022-10-05T08:38:39.209Z,1012.46
2022-10-05T08:39:39.186Z,1012.47
2022-10-05T08:40:39.179Z,1012.47
2022-10-05T08:41:39.165Z,1012.52
2022-10-05T08:42:39.156Z,1012.53
2022-10-05T08:43:39.170Z,1012.52
2022-10-05T08:44:39.137Z,1012.53
2022-10-05T08:45:39.117Z,1012.46
2022-10-05T08:46:39.179Z,1012.47
2022-10-05T08:47:39.103Z,1012.44
2022-10-05T08:48:39.095Z,1012.47
2022-10-05T08:49:39.083Z,1012.45
2022-10-05T08:50:39.067Z,1012.45
2022-10-05T08:51:39.050Z,1012.43
2022-10-05T08:52:39.065Z,1012.46
2022-10-05T08:53:39.047Z,1012.45
2022-10-05T08:54:39.026Z,1012.45
2022-10-05T08:55:39.011Z,1012.46
2022-10-05T08:56:38.998Z,1012.46
2022-10-05T08:57:38.990Z,1012.42
2022-10-05T08:58:38.990Z,1012.41
2022-10-05T08:59:38.962Z,1012.43
2022-10-05T09:00:38.957Z,1012.44
2022-10-05T09:01:39.027Z,1012.41
2022-10-05T09:02:39.026Z,1012.41
2022-10-05T09:03:38.940Z,1012.43
2022-10-05T09:04:38.912Z,1012.45
2022-10-05T09:05:38.893Z,1012.41
2022-10-05T09:06:38.904Z,1012.42
2022-10-05T09:07:38.882Z,1012.47
2022-10-05T09:08:38.898Z,1012.40
2022-10-05T09:09:38.854Z,1012.41
2022-10-05T09:10:38.836Z,1012.42
2022-10-05T09:11:38.849Z,1012.38
2022-10-05T09:12:38.808Z,1012.38
2022-10-05T09:13:38.814Z,1012.39
2022-10-05T09:14:38.787Z,1012.36
2022-10-05T09:15:38.850Z,1012.40
2022-10-05T09:16:38.786Z,1012.36
2022-10-05T09:17:39.497Z,1012.33
2022-10-05T09:18:38.778Z,1012.36
2022-10-05T09:19:38.737Z,1012.32
2022-10-05T09:20:38.733Z,1012.32
2022-10-05T09:21:38.715Z,1012.33
2022-10-05T09:22:38.702Z,1012.32
2022-10-05T09:23:38.716Z,1012.30
2022-10-05T09:24:38.738Z,1012.31
2022-10-05T09:25:38.676Z,1012.33
2022-10-05T09:26:38.674Z,1012.38
2022-10-05T09:27:38.661Z,1012.32
2022-10-05T09:28:38.742Z,1012.32
2022-10-05T09:29:38.646Z,1012.34
2022-10-05T09:30:38.745Z,1012.27
2022-10-05T09:31:38.601Z,1012.30
2022-10-05T09:32:38.610Z,1012.29
2022-10-05T09:33:38.648Z,1012.26
2022-10-05T09:34:38.579Z,1012.25
2022-10-05T09:35:38.582Z,1012.21
2022-10-05T09:36:38.555Z,1012.27
2022-10-05T09:37:38.540Z,1012.24
2022-10-05T09:38:38.538Z,1012.21
2022-10-05T09:39:38.512Z,1012.23
2022-10-05T09:40:38.523Z,1012.19
2022-10-05T09:41:38.488Z,1012.13
2022-10-05T09:42:38.475Z,1012.17
2022-10-05T09:43:38.485Z,1012.16
2022-10-05T09:44:38.458Z,1012.10
2022-10-05T09:45:38.449Z,1012.13
2022-10-05T09:46:38.559Z,1012.10
2022-10-05T09:47:38.425Z,1012.11
2022-10-05T09:48:38.420Z,1012.09
2022-10-05T09:49:38.396Z,1012.11
2022-10-05T09:50:38.389Z,1012.05
2022-10-05T09:51:38.381Z,1012.02
2022-10-05T09:52:38.367Z,1012.05
2022-10-05T09:53:38.538Z,1012.06
2022-10-05T09:54:38.342Z,1011.97
2022-10-05T09:55:38.337Z,1011.99
2022-10-05T09:56:38.347Z,1011.96
2022-10-05T09:57:38.307Z,1012.04
2022-10-05T09:58:38.321Z,1011.95
2022-10-05T09:59:38.285Z,1011.97
2022-10-05T10:00:38.278Z,1011.91
2022-10-05T10:01:38.334Z,1011.87
2022-10-05T10:02:38.378Z,1011.83
2022-10-05T10:03:38.256Z,1011.86
2022-10-05T10:04:38.236Z,1011.83
2022-10-05T10:05:38.220Z,1011.85
2022-10-05T10:06:38.205Z,1011.85
2022-10-05T10:07:38.197Z,1011.89
2022-10-05T10:08:38.204Z,1011.89
2022-10-05T10:09:38.876Z,1011.82
2022-10-05T10:10:38.166Z,1011.83
2022-10-05T10:11:38.160Z,1011.91
2022-10-05T10:12:38.158Z,1011.83
2022-10-05T10:13:38.154Z,1011.88
2022-10-05T10:14:38.115Z,1011.88
2022-10-05T10:15:38.162Z,1011.92
2022-10-05T10:16:38.093Z,1011.92
2022-10-05T10:17:38.086Z,1011.95
2022-10-05T10:18:38.089Z,1011.93
2022-10-05T10:19:38.062Z,1011.93
2022-10-05T10:20:38.058Z,1011.93
2022-10-05T10:21:38.044Z,1011.92
2022-10-05T10:22:42.277Z,1011.93
2022-10-05T10:23:39.033Z,1011.87
2022-10-05T10:24:38.018Z,1011.90
2022-10-05T10:25:38.004Z,1011.95
2022-10-05T10:26:37.990Z,1011.99
2022-10-05T10:27:37.979Z,1011.94
2022-10-05T10:28:38.073Z,1011.89
2022-10-05T10:29:37.965Z,1011.96
2022-10-05T10:30:37.938Z,1011.96
2022-10-05T10:31:37.927Z,1011.90
2022-10-05T10:32:37.913Z,1011.90
2022-10-05T10:33:37.917Z,1011.92
2022-10-05T10:34:37.908Z,1011.84
2022-10-05T10:35:37.885Z,1011.85
2022-10-05T10:36:37.878Z,1011.75
2022-10-05T10:37:37.861Z,1011.84
2022-10-05T10:38:37.857Z,1011.82
2022-10-05T10:39:37.859Z,1011.87
2022-10-05T10:40:37.845Z,1011.79
2022-10-05T10:41:37.823Z,1011.75
2022-10-05T10:42:37.811Z,1011.75
2022-10-05T10:43:37.805Z,1011.79
2022-10-05T10:44:37.820Z,1011.70
2022-10-05T10:45:37.775Z,1011.71
2022-10-05T10:46:37.894Z,1011.72
2022-10-05T10:47:37.758Z,1011.67
2022-10-05T10:48:37.759Z,1011.65
2022-10-05T10:49:37.758Z,1011.58
2022-10-05T10:50:37.726Z,1011.54
2022-10-05T10:51:37.711Z,1011.60
2022-10-05T10:52:37.697Z,1011.54
2022-10-05T10:53:37.698Z,1011.54
2022-10-05T10:54:37.699Z,1011.54
2022-10-05T10:55:37.671Z,1011.53
2022-10-05T10:56:37.652Z,1011.44
2022-10-05T10:57:37.651Z,1011.43
2022-10-05T10:58:37.635Z,1011.46
2022-10-05T10:59:37.632Z,1011.46
2022-10-05T11:00:37.643Z,1011.43
2022-10-05T11:01:37.622Z,1011.42
2022-10-05T11:02:37.642Z,1011.48
2022-10-05T11:03:37.582Z,1011.50
2022-10-05T11:04:37.577Z,1011.45
2022-10-05T11:05:37.564Z,1011.46
2022-10-05T11:06:37.545Z,1011.44
2022-10-05T11:07:37.536Z,1011.42
2022-10-05T11:08:37.516Z,1011.38
2022-10-05T11:09:37.540Z,1011.41
2022-10-05T11:10:37.497Z,1011.33
2022-10-05T11:11:37.483Z,1011.26
2022-10-05T11:12:37.480Z,1011.28
2022-10-05T11:13:37.469Z,1011.23
2022-10-05T11:14:37.475Z,1011.16
2022-10-05T11:15:37.507Z,1011.15
2022-10-05T11:16:37.455Z,1011.23
2022-10-05T11:17:37.421Z,1011.15
2022-10-05T11:18:37.409Z,1011.16
2022-10-05T11:19:46.381Z,1011.15
2022-10-05T11:20:38.407Z,1011.20
2022-10-05T11:21:37.381Z,1011.16
2022-10-05T11:22:37.372Z,1011.16
2022-10-05T11:23:39.040Z,1011.12
2022-10-05T11:24:37.350Z,1011.09
2022-10-05T11:25:37.377Z,1011.06
2022-10-05T11:26:37.323Z,1011.05
2022-10-05T11:27:38.026Z,1011.01
2022-10-05T11:28:37.385Z,1010.96
2022-10-05T11:29:37.296Z,1010.96
2022-10-05T11:30:37.309Z,1010.96
2022-10-05T11:31:37.367Z,1011.00
2022-10-05T11:32:37.281Z,1010.96
2022-10-05T11:33:37.243Z,1010.91
2022-10-05T11:34:37.236Z,1010.94
2022-10-05T11:35:37.237Z,1010.91
2022-10-05T11:36:37.215Z,1010.96
2022-10-05T11:37:37.209Z,1010.98
2022-10-05T11:38:37.191Z,1010.89
2022-10-05T11:39:37.175Z,1010.84
2022-10-05T11:40:37.193Z,1010.85
2022-10-05T11:41:37.176Z,1010.83
2022-10-05T11:42:37.146Z,1010.78
2022-10-05T11:43:37.139Z,1010.76
2022-10-05T11:44:37.135Z,1010.85
2022-10-05T11:45:37.132Z,1010.79
2022-10-05T11:46:37.185Z,1010.77
2022-10-05T11:47:37.095Z,1010.65
2022-10-05T11:48:37.102Z,1010.70
2022-10-05T11:49:37.073Z,1010.70
2022-10-05T11:50:37.088Z,1010.73
2022-10-05T11:51:37.048Z,1010.64
2022-10-05T11:52:37.045Z,1010.60
2022-10-05T11:53:37.031Z,1010.59
2022-10-05T11:54:58.468Z,1010.58
2022-10-05T11:55:38.018Z,1010.57
2022-10-05T11:56:37.001Z,1010.55
2022-10-05T11:57:36.988Z,1010.51
2022-10-05T11:58:36.969Z,1010.50
2022-10-05T11:59:36.965Z,1010.47
2022-10-05T12:00:36.965Z,1010.48
2022-10-05T12:01:36.942Z,1010.60
2022-10-05T12:02:38.916Z,1010.75
2022-10-05T12:03:37.151Z,1010.47
2022-10-05T12:04:36.938Z,1010.41
2022-10-05T12:05:36.908Z,1010.40